»·PEaware :: N777AN L88-KSBP

N777AN :: L88-KSBP

FLIGHT INFORMATION

Flight Status: Arrived
Operator: Privately registered:
United States
More flights under this callsign
Pilot: Chris Beckett (15698)
Aircraft: CSA SportCruiser
(CRUZ)
More flights by this aircraft type
Origin: L88 New Cuyama
United States
Destination: KSBP San Luis Co Regl
United States
More flights between these airports :: More routes between these airports
Route:
File this flight plan on PilotEdge
Remarks: CAT-02
Altitude:
(Current/Filed)
6,500ft
Speed:
(Current/Filed)
0kts
Departed: 13-Jun-17 05:32 PM
Arrived: 13-Jun-17 06:15 PM
Distance/Time
Traveled:
50nm/0:43
Distance/Time
To Go:
Arrived

Flight Plot

Page will automatically refresh every two minutes.

Flight plan parsing failed; only flown route is shown


Map Options




Map Legend


Flown Route
Filed Route
Departure Airport
Arrival Airport
Navaid (VOR, NDB)
Fix

Horizontal Profiles

Position Reports

Time Latitude Longitude Heading Altitude Ground
Speed
13-Jun-17 17:27 34.943923 -119.690802 203 2207ft 0kts
13-Jun-17 17:28 34.943011 -119.691103 192 2206ft 0kts
13-Jun-17 17:29 34.943011 -119.691103 192 2206ft 0kts
13-Jun-17 17:30 34.943011 -119.691103 192 2206ft 0kts
13-Jun-17 17:31 34.943011 -119.691103 192 2206ft 0kts
13-Jun-17 17:32 34.943011 -119.691103 192 2206ft 0kts
13-Jun-17 17:33 34.943011 -119.691103 192 2206ft 0kts
13-Jun-17 17:34 34.938492 -119.682030 119 2207ft 44kts
13-Jun-17 17:35 34.943918 -119.690796 203 2207ft 0kts
13-Jun-17 17:36 34.941365 -119.689068 120 2207ft 36kts
13-Jun-17 17:37 34.937696 -119.680107 63 2207ft 1kts
13-Jun-17 17:38 34.940789 -119.686252 290 2379ft 53kts
13-Jun-17 17:39 34.948852 -119.704703 294 3441ft 64kts
13-Jun-17 17:40 34.957700 -119.722730 294 4637ft 61kts
13-Jun-17 17:41 34.965765 -119.740108 294 5749ft 59kts
13-Jun-17 17:42 34.973841 -119.758892 293 6603ft 82kts
13-Jun-17 17:43 34.976486 -119.765373 296 6674ft 94kts
13-Jun-17 17:44 34.986890 -119.788633 298 6822ft 108kts
13-Jun-17 17:45 34.991077 -119.794216 309 7159ft 101kts
13-Jun-17 17:46 35.012504 -119.818781 291 6778ft 108kts
13-Jun-17 17:47 35.024381 -119.853324 293 6592ft 108kts
13-Jun-17 17:48 35.035700 -119.882011 293 6570ft 106kts
13-Jun-17 17:49 35.044971 -119.905935 294 6673ft 98kts
13-Jun-17 17:50 35.049845 -119.923231 283 6755ft 92kts
13-Jun-17 17:51 35.050352 -119.925868 284 6818ft 86kts
13-Jun-17 17:52 35.059378 -119.958100 294 6520ft 95kts
13-Jun-17 17:53 35.070718 -119.986833 295 6518ft 92kts
13-Jun-17 17:54 35.081915 -120.015568 295 6455ft 94kts
13-Jun-17 17:55 35.092480 -120.043275 294 6459ft 90kts
13-Jun-17 17:56 35.103211 -120.072031 295 6455ft 90kts
13-Jun-17 17:57 35.112960 -120.099011 294 6467ft 86kts
13-Jun-17 17:58 35.121986 -120.124785 294 6464ft 86kts
13-Jun-17 17:59 35.131129 -120.151484 295 6468ft 84kts
13-Jun-17 18:00 35.139980 -120.177915 294 6468ft 84kts
13-Jun-17 18:01 35.148630 -120.204315 294 6469ft 83kts
13-Jun-17 18:02 35.157085 -120.230741 294 6469ft 83kts
13-Jun-17 18:03 35.161623 -120.258941 282 6464ft 86kts
13-Jun-17 18:04 35.164091 -120.287980 281 6468ft 86kts
13-Jun-17 18:05 35.166549 -120.317350 281 6474ft 87kts
13-Jun-17 18:06 35.169022 -120.346799 282 6476ft 87kts
13-Jun-17 18:07 35.171571 -120.376321 282 6471ft 87kts
13-Jun-17 18:08 35.174042 -120.406052 281 6478ft 88kts
13-Jun-17 18:09 35.176479 -120.435468 281 6468ft 92kts
13-Jun-17 18:10 35.179057 -120.465887 281 6461ft 90kts
13-Jun-17 18:11 35.181311 -120.496138 285 5777ft 91kts
13-Jun-17 18:12 35.186391 -120.523955 287 5174ft 79kts
13-Jun-17 18:13 35.192414 -120.548383 294 4554ft 70kts
13-Jun-17 18:14 35.199854 -120.571386 297 3781ft 90kts
13-Jun-17 18:15 35.212315 -120.601971 309 2024ft 94kts
13-Jun-17 18:16 35.224399 -120.619675 306 1008ft 64kts
13-Jun-17 18:17 35.232617 -120.632874 307 227ft 21kts
13-Jun-17 18:18 35.234142 -120.634103 267 211ft 0kts
13-Jun-17 18:19 35.234136 -120.634106 279 211ft 0kts
13-Jun-17 18:20 35.238404 -120.640111 304 215ft 0kts
13-Jun-17 18:21 35.238404 -120.640111 304 215ft 0kts
13-Jun-17 18:22 35.238404 -120.640111 304 215ft 0kts
13-Jun-17 18:23 35.238404 -120.640111 305 215ft 0kts
13-Jun-17 18:24 35.238404 -120.640111 304 215ft 0kts
13-Jun-17 18:25 35.238404 -120.640111 304 215ft 0kts
13-Jun-17 18:26 35.238404 -120.640111 304 215ft 0kts
13-Jun-17 18:27 35.238404 -120.640111 304 215ft 0kts

Navigation Log

Ident Type
Flight plan parsing failed, navigation log unavailable